首页
METAR-TAF:

METAR-TAF

机场 :

克赖斯特彻奇国际机场

基督城, 新西兰

纬度: 43-29S, 经度: 172-33E, 海拔: 38米

当前天气观测

该预报发布于11分钟前的00:00 UTC
风速5节,风向西南,在南转西南西转西北之间变化
温度 11°C
湿度 71%
气压 998 hPa
能见度10公里或以上

METAR: NZCH 170000Z AUTO 23005KT 200V300 9999 SCT070/// BKN080/// OVC100/// 11/06 Q0998 NOSIG

时间: 12:11 (00:11 UTC)

预报

该预报发布于59分钟前的23:12 UTC
预报有效从17日的 00点(UTC)到 18日的 00点(UTC)
风速5节,风向西转西南
能见度10公里或以上
1500米以下无云,无积雨云
从 17日的 0200点(UTC)
风速15节,风向西转西南
能见度10公里或以上
多云层高于4000英尺
小阵雨
短暂存在
从 17日的 03点(UTC)到 17日的 05点(UTC)
能見度: 6000
少量云层高于2000英尺, 塔状积云.
阵雨
成为
从 17日的 05点(UTC)到 17日的 07点(UTC)
风速15节,风向南转西南
短暂存在
从 17日的 05点(UTC)到 17日的 11点(UTC)
能見度: 4000
多云层高于1200英尺
少量云层高于2000英尺, 塔状积云.
阵雨
成为
从 17日的 16点(UTC)到 17日的 18点(UTC)
风速5节,风向南转西南

TAF: NZCH 162312Z 1700/1800 24005KT CAVOK FM170200 24015KT 9999 -SHRA BKN040 TEMPO 1703/1705 6000 SHRA FEW020TCU BECMG 1705/1707 20015KT TEMPO 1705/1711 4000 SHRA BKN012 FEW020TCU BECMG 1716/1718 20005KT

超过4000个机场的气象观测和天气预报(METAR&TAF报告)。

可查询的气象台以黄色和红色小点在地图上表示。

将鼠标移到小点上方,可查看气象台名称。

然后点击查看天气观测和预报。

如需切换地图:点击带黑十字的绿色按钮放大地图;点击带横线的绿色按钮缩小地图;或者点击绿色箭头查看邻近地区的地图。


METAR-TAF: